ROTAER D-AMDT 48/19 Ver Mudanças

Barreiras ( SNBR ) / BARREIRAS, BA 12 04 45S/045 00 34W
AD PUB Governo do Estado 19WNN UTC-3 VFR L21 , L26 748 (2454)

08 - L12 - ( 1600x30 ASPH 35/F/A/X/T L14 , L15 ) - L12 - 26

SBRE (CINDACTA 3)
RDONAV -
VOR/DME BRR 114.3 1204.80S/04500.43W
CMB- TF [3]
MET -

[1] [2]

RMK -

DADOS GEOGRÁFICOS E ADMINISTRATIVOS DE AERÓDROMO
  1. Contatos telefônicos: (71) 3241-1982, (77) 8116-0829, (71) 9670-6361,(77) 9993-2336 e (77) 9909-5421 - São Francisco
HORÁRIO DE FUNCIONAMENTO
  1. OPS VFR noturna PPR e COOR O/R com antecedência MNM de 1 hora através dos TEL: (77) 9125-9724, 3611-2361 ou 9931-6210
OBSTÁCULO DE AERÓDROMO
  1. OBS OBST (antena) DIST 5578M da THR 08, no AZM 203DEG, ELEV 2444FT
COMPL -
  • [1] MET ERAA (ESTACAO DE RADIODIFUSAO AUTOMATICA DE AERODROMO) FREQ 132.350MHZ.
  • [2] PARA ACESSAR METAR/SPECI AUTO USAR CODIGO DE LOCALIDADE SNBR
  • [3] SHELL DLY 1030-2100. Demais HR O/R THRU TEL (71) 99670-6338, (71) 99670-6386 ou (66) 99931-2799.
TEMP (0)

Suplementos AIP (0)

NOTAM (1)

NAV

B0171/20 N 05/02/2020 17:09
UA (FLT RPA) ACONTECERA CENTRO COORD 120844.19S0445928.15W RAIO 500M


Nascer/Por do Sol

09:00

21:27


METAR

192100Z AUTO 13005KT 100V160 CAVOK 26/19 Q1012=

TAF

190400Z 1906/1918 07005KT CAVOK TN23/1909Z TX29/1917Z RMK PAZ=


Cartas (0)


Rotas Preferenciais (0)